Terminal Aerodrome Forecast
Issued by NWS Louisville, KY

Home | Current Version | Previous Version | Text Only | Print | Product List | Glossary On
Versions: 1 2 3 4 5 6 7 8 9 10 11 12 13 14 15 16 17 18 19 20 21
196
FTUS43 KLMK 041720
TAFLEX
TAF
KLEX 041720Z 0418/0518 12008KT P6SM OVC050
     FM042100 16006KT 4SM -RA BR OVC007
     FM050300 25007KT 6SM -DZ BR OVC005
     FM051300 28005KT 4SM BR OVC015=

USA.gov is the U.S. government's official web portal to all federal, state and local government web resources and services.